createdAt,value
2018-11-05T00:00:10.321Z,99.99
2018-11-05T00:00:50.883Z,99.99
2018-11-05T00:01:31.438Z,99.99
2018-11-05T00:02:12.018Z,99.99
2018-11-05T00:02:52.585Z,99.99
2018-11-05T00:03:33.141Z,99.99
2018-11-05T00:04:13.699Z,99.99
2018-11-05T00:04:54.280Z,99.99
2018-11-05T00:05:34.949Z,99.99
2018-11-05T00:06:15.493Z,99.99
2018-11-05T00:06:56.044Z,99.99
2018-11-05T00:07:36.606Z,99.99
2018-11-05T00:08:17.192Z,99.99
2018-11-05T00:08:57.747Z,99.99
2018-11-05T00:09:38.298Z,99.99
2018-11-05T00:10:18.863Z,99.99
2018-11-05T00:10:59.443Z,99.99
2018-11-05T00:11:39.991Z,99.99
2018-11-05T00:12:20.549Z,99.99
2018-11-05T00:13:01.104Z,99.99
2018-11-05T00:13:41.670Z,99.99
2018-11-05T00:14:22.219Z,99.99
2018-11-05T00:15:02.783Z,99.99
2018-11-05T00:15:43.331Z,99.99
2018-11-05T00:16:23.884Z,99.99
2018-11-05T00:17:04.432Z,99.99
2018-11-05T00:17:44.990Z,99.99
2018-11-05T00:18:25.575Z,99.99
2018-11-05T00:19:06.134Z,99.99
2018-11-05T00:19:46.741Z,99.99
2018-11-05T00:20:27.316Z,99.99
2018-11-05T00:21:07.891Z,99.99
2018-11-05T00:21:48.455Z,99.99
2018-11-05T00:22:29.006Z,99.99
2018-11-05T00:23:09.563Z,99.99
2018-11-05T00:23:50.139Z,99.99
2018-11-05T00:24:30.717Z,99.99
2018-11-05T00:25:11.277Z,99.99
2018-11-05T00:25:51.856Z,99.99
2018-11-05T00:26:32.423Z,99.99
2018-11-05T00:27:12.982Z,99.99
2018-11-05T00:27:53.533Z,99.99
2018-11-05T00:28:34.096Z,99.99
2018-11-05T00:29:14.665Z,99.99
2018-11-05T00:29:55.228Z,99.99
2018-11-05T00:30:35.805Z,99.99
2018-11-05T00:31:16.353Z,99.99
2018-11-05T00:31:56.934Z,99.99
2018-11-05T00:32:37.476Z,99.99
2018-11-05T00:33:18.030Z,99.99
2018-11-05T00:33:58.604Z,99.99
2018-11-05T00:34:39.161Z,99.99
2018-11-05T00:35:19.733Z,99.99
2018-11-05T00:36:00.414Z,99.99
2018-11-05T00:36:40.969Z,99.99
2018-11-05T00:37:21.530Z,99.99
2018-11-05T00:38:02.096Z,99.99
2018-11-05T00:38:42.639Z,99.99
2018-11-05T00:39:23.189Z,99.99
2018-11-05T00:40:03.745Z,99.99
2018-11-05T00:40:44.304Z,99.99
2018-11-05T00:41:24.884Z,99.99
2018-11-05T00:42:05.439Z,99.99
2018-11-05T00:42:46.001Z,99.99
2018-11-05T00:43:26.559Z,99.99
2018-11-05T00:44:07.121Z,99.99
2018-11-05T00:44:47.682Z,99.99
2018-11-05T00:45:28.251Z,99.99
2018-11-05T00:46:08.801Z,99.99
2018-11-05T00:46:49.352Z,99.99
2018-11-05T00:47:29.912Z,99.99
2018-11-05T00:48:10.503Z,99.99
2018-11-05T00:48:51.076Z,99.99
2018-11-05T00:49:31.624Z,99.99
2018-11-05T00:50:12.178Z,99.99
2018-11-05T00:50:52.728Z,99.99
2018-11-05T00:51:33.302Z,99.99
2018-11-05T00:52:13.855Z,99.99
2018-11-05T00:52:54.397Z,99.99
2018-11-05T00:53:34.959Z,99.99
2018-11-05T00:54:15.521Z,99.99
2018-11-05T00:54:56.076Z,99.99
2018-11-05T00:55:36.641Z,99.99
2018-11-05T00:56:17.195Z,99.99
2018-11-05T00:56:57.767Z,99.99
2018-11-05T00:57:38.332Z,99.99
2018-11-05T00:58:18.885Z,99.99
2018-11-05T00:58:59.618Z,99.99
2018-11-05T00:59:40.179Z,99.99
2018-11-05T01:00:20.747Z,99.99
2018-11-05T01:01:01.490Z,99.99
2018-11-05T01:01:42.050Z,99.99
2018-11-05T01:02:22.596Z,99.99
2018-11-05T01:03:03.161Z,99.99
2018-11-05T01:03:43.772Z,99.99
2018-11-05T01:04:24.334Z,99.99
2018-11-05T01:05:04.891Z,99.99
2018-11-05T01:05:45.434Z,99.99
2018-11-05T01:06:26.005Z,99.99
2018-11-05T01:07:06.638Z,99.99
2018-11-05T01:07:47.219Z,99.99
2018-11-05T01:08:27.780Z,99.99
2018-11-05T01:09:08.382Z,99.99
2018-11-05T01:09:48.945Z,99.99
2018-11-05T01:10:29.495Z,99.99
2018-11-05T01:11:10.111Z,99.99
2018-11-05T01:11:50.642Z,99.99
2018-11-05T01:12:31.365Z,99.99
2018-11-05T01:13:12.103Z,99.99
2018-11-05T01:13:52.690Z,99.99
2018-11-05T01:14:33.259Z,99.99
2018-11-05T01:15:13.809Z,99.99
2018-11-05T01:15:54.381Z,99.99
2018-11-05T01:16:34.997Z,99.99
2018-11-05T01:17:15.674Z,99.99
2018-11-05T01:17:56.209Z,99.99
2018-11-05T01:18:36.773Z,99.99
2018-11-05T01:19:17.327Z,99.99
2018-11-05T01:19:57.906Z,99.99
2018-11-05T01:20:38.558Z,99.99
2018-11-05T01:21:19.166Z,99.99
2018-11-05T01:21:59.739Z,99.99
2018-11-05T01:22:40.294Z,99.99
2018-11-05T01:23:20.856Z,99.99
2018-11-05T01:24:01.406Z,99.99
2018-11-05T01:24:42.038Z,99.99
2018-11-05T01:25:22.612Z,99.99
2018-11-05T01:26:03.170Z,99.99
2018-11-05T01:26:43.701Z,99.99
2018-11-05T01:27:24.267Z,99.99
2018-11-05T01:28:04.871Z,99.99
2018-11-05T01:28:45.443Z,99.99
2018-11-05T01:29:25.982Z,99.99
2018-11-05T01:30:06.605Z,99.99
2018-11-05T01:30:47.158Z,99.99
2018-11-05T01:31:27.719Z,99.99
2018-11-05T01:32:08.259Z,99.99
2018-11-05T01:32:49.083Z,99.99
2018-11-05T01:33:29.712Z,99.99
2018-11-05T01:34:10.322Z,99.99
2018-11-05T01:34:50.901Z,99.99
2018-11-05T01:35:31.457Z,99.99
2018-11-05T01:36:12.026Z,99.99
2018-11-05T01:36:52.626Z,99.99
2018-11-05T01:37:33.225Z,99.99
2018-11-05T01:38:13.789Z,99.99
2018-11-05T01:38:54.348Z,99.99
2018-11-05T01:39:34.921Z,99.99
2018-11-05T01:40:15.468Z,99.99
2018-11-05T01:40:56.170Z,99.99
2018-11-05T01:41:36.717Z,99.99
2018-11-05T01:42:17.274Z,99.99
2018-11-05T01:42:57.825Z,99.99
2018-11-05T01:43:38.372Z,99.99
2018-11-05T01:44:19.040Z,99.99
2018-11-05T01:44:59.602Z,99.99
2018-11-05T01:45:40.148Z,99.99
2018-11-05T01:46:20.730Z,99.99
2018-11-05T01:47:01.264Z,99.99
2018-11-05T01:47:41.823Z,99.99
2018-11-05T01:48:22.381Z,99.99
2018-11-05T01:49:02.947Z,99.99
2018-11-05T01:49:43.508Z,99.99
2018-11-05T01:50:24.102Z,99.99
2018-11-05T01:51:04.685Z,99.99
2018-11-05T01:51:45.246Z,99.99
2018-11-05T01:52:25.828Z,99.99
2018-11-05T01:53:06.390Z,99.99
2018-11-05T01:53:46.946Z,99.99
2018-11-05T01:54:27.504Z,99.99
2018-11-05T01:55:08.062Z,99.99
2018-11-05T01:55:48.643Z,99.99
2018-11-05T01:56:29.181Z,99.99
2018-11-05T01:57:09.737Z,99.99
2018-11-05T01:57:50.316Z,99.99
2018-11-05T01:58:30.878Z,99.99
2018-11-05T01:59:11.440Z,99.99
2018-11-05T01:59:51.986Z,99.99
2018-11-05T02:00:32.545Z,99.99
2018-11-05T02:01:13.107Z,99.99
2018-11-05T02:01:53.651Z,99.99
2018-11-05T02:02:34.205Z,99.99
2018-11-05T02:03:14.763Z,99.99
2018-11-05T02:03:55.323Z,99.99
2018-11-05T02:04:35.924Z,99.99
2018-11-05T02:05:16.547Z,99.99
2018-11-05T02:05:57.112Z,99.99
2018-11-05T02:06:37.691Z,99.99
2018-11-05T02:07:18.252Z,99.99
2018-11-05T02:07:58.844Z,99.99
2018-11-05T02:08:39.418Z,99.99
2018-11-05T02:09:19.979Z,99.99
2018-11-05T02:10:00.575Z,99.99
2018-11-05T02:10:41.105Z,99.99
2018-11-05T02:11:21.669Z,99.99
2018-11-05T02:12:02.228Z,99.99
2018-11-05T02:12:42.772Z,99.99
2018-11-05T02:13:23.424Z,99.99
2018-11-05T02:14:03.896Z,99.99
2018-11-05T02:14:44.461Z,99.99
2018-11-05T02:15:25.044Z,99.99
2018-11-05T02:16:05.720Z,99.99
2018-11-05T02:16:46.217Z,99.99
2018-11-05T02:17:26.778Z,99.99
2018-11-05T02:18:07.346Z,99.99
2018-11-05T02:18:47.948Z,99.99
2018-11-05T02:19:28.524Z,99.99
2018-11-05T02:20:09.073Z,99.99
2018-11-05T02:20:49.645Z,99.99
2018-11-05T02:21:30.207Z,99.99
2018-11-05T02:22:10.763Z,99.99
2018-11-05T02:22:51.314Z,99.99
2018-11-05T02:23:31.872Z,99.99
2018-11-05T02:24:12.442Z,99.99
2018-11-05T02:24:53.014Z,99.99
2018-11-05T02:25:33.569Z,99.99
2018-11-05T02:26:14.140Z,99.99
2018-11-05T02:26:54.689Z,99.99
2018-11-05T02:27:35.241Z,99.99
2018-11-05T02:28:15.837Z,99.99
2018-11-05T02:28:56.339Z,99.99
2018-11-05T02:29:36.897Z,99.99
2018-11-05T02:30:17.465Z,99.99
2018-11-05T02:30:58.046Z,99.99
2018-11-05T02:31:38.579Z,99.99
2018-11-05T02:32:19.154Z,99.99
2018-11-05T02:32:59.710Z,99.99
2018-11-05T02:33:40.296Z,99.99
2018-11-05T02:34:20.876Z,99.99
2018-11-05T02:35:01.434Z,99.99
2018-11-05T02:35:42.037Z,99.99
2018-11-05T02:36:22.607Z,99.99
2018-11-05T02:37:03.177Z,99.99
2018-11-05T02:37:43.734Z,99.99
2018-11-05T02:38:24.322Z,99.99
2018-11-05T02:39:04.875Z,99.99
2018-11-05T02:39:45.445Z,99.99
2018-11-05T02:40:26.008Z,99.99
2018-11-05T02:41:06.671Z,99.99
2018-11-05T02:41:47.192Z,99.99
2018-11-05T02:42:27.751Z,99.99
2018-11-05T02:43:08.316Z,99.99
2018-11-05T02:43:48.893Z,99.99
2018-11-05T02:44:29.446Z,99.99
2018-11-05T02:45:10.032Z,99.99
2018-11-05T02:45:50.583Z,99.99
2018-11-05T02:46:31.143Z,99.99
2018-11-05T02:47:11.695Z,99.99
2018-11-05T02:47:52.256Z,99.99
2018-11-05T02:48:32.804Z,99.99
2018-11-05T02:49:13.356Z,99.99
2018-11-05T02:49:53.921Z,99.99
2018-11-05T02:50:34.486Z,99.99
2018-11-05T02:51:15.070Z,99.99
2018-11-05T02:51:55.619Z,99.99
2018-11-05T02:52:36.201Z,99.99
2018-11-05T02:53:16.744Z,99.99
2018-11-05T02:53:57.301Z,99.99
2018-11-05T02:54:38.142Z,99.99
2018-11-05T02:55:18.701Z,99.99
2018-11-05T02:55:59.251Z,99.99
2018-11-05T02:56:39.821Z,99.99
2018-11-05T02:57:20.378Z,99.99
2018-11-05T02:58:00.967Z,99.99
2018-11-05T02:58:41.557Z,99.99
2018-11-05T02:59:22.111Z,99.99
2018-11-05T03:00:02.673Z,99.99
2018-11-05T03:00:43.230Z,99.99
2018-11-05T03:01:23.777Z,99.99
2018-11-05T03:02:04.357Z,99.99
2018-11-05T03:02:44.926Z,99.99
2018-11-05T03:03:25.630Z,99.99
2018-11-05T03:04:06.111Z,99.99
2018-11-05T03:04:46.685Z,99.99
2018-11-05T03:05:27.245Z,99.99
2018-11-05T03:06:07.798Z,99.99
2018-11-05T03:06:48.374Z,99.99
2018-11-05T03:07:28.918Z,99.99
2018-11-05T03:08:09.503Z,99.99
2018-11-05T03:08:50.056Z,99.99
2018-11-05T03:09:30.628Z,99.99
2018-11-05T03:10:11.179Z,99.99
2018-11-05T03:10:51.823Z,99.99
2018-11-05T03:11:32.389Z,99.99
2018-11-05T03:12:12.956Z,99.99
2018-11-05T03:12:53.508Z,99.99
2018-11-05T03:13:34.161Z,99.99
2018-11-05T03:14:14.709Z,99.99
2018-11-05T03:14:55.285Z,99.99
2018-11-05T03:15:35.885Z,99.99
2018-11-05T03:16:16.444Z,99.99
2018-11-05T03:16:57.072Z,99.99
2018-11-05T03:17:37.619Z,99.99
2018-11-05T03:18:18.180Z,99.99
2018-11-05T03:18:58.747Z,99.99
2018-11-05T03:19:39.315Z,99.99
2018-11-05T03:20:19.858Z,99.99
2018-11-05T03:21:00.407Z,99.99
2018-11-05T03:21:40.975Z,99.99
2018-11-05T03:22:21.523Z,99.99
2018-11-05T03:23:02.090Z,99.99
2018-11-05T03:23:42.769Z,99.99
2018-11-05T03:24:23.351Z,99.99
2018-11-05T03:25:03.920Z,99.99
2018-11-05T03:25:44.489Z,99.99
2018-11-05T03:26:25.060Z,99.99
2018-11-05T03:27:05.612Z,99.99
2018-11-05T03:27:46.191Z,99.99
2018-11-05T03:28:26.777Z,99.99
2018-11-05T03:29:07.338Z,99.99
2018-11-05T03:29:47.938Z,99.99
2018-11-05T03:30:28.497Z,99.99
2018-11-05T03:31:09.060Z,99.99
2018-11-05T03:31:49.653Z,99.99
2018-11-05T03:32:30.232Z,99.99
2018-11-05T03:33:10.782Z,99.99
2018-11-05T03:33:51.351Z,99.99
2018-11-05T03:34:31.890Z,99.99
2018-11-05T03:35:12.446Z,99.99
2018-11-05T03:35:53.140Z,99.99
2018-11-05T03:36:33.582Z,99.99
2018-11-05T03:37:14.137Z,99.99
2018-11-05T03:37:54.689Z,99.99
2018-11-05T03:38:35.253Z,99.99
2018-11-05T03:39:15.820Z,99.99
2018-11-05T03:39:56.390Z,99.99
2018-11-05T03:40:36.991Z,99.99
2018-11-05T03:41:17.537Z,99.99
2018-11-05T03:41:58.096Z,99.99
2018-11-05T03:42:38.641Z,99.99
2018-11-05T03:43:19.209Z,99.99
2018-11-05T03:43:59.779Z,99.99
2018-11-05T03:44:40.340Z,99.99
2018-11-05T03:45:20.912Z,99.99
2018-11-05T03:46:01.472Z,99.99
2018-11-05T03:46:42.032Z,99.99
2018-11-05T03:47:22.596Z,99.99
2018-11-05T03:48:03.176Z,99.99
2018-11-05T03:48:43.738Z,99.99
2018-11-05T03:49:24.366Z,99.99
2018-11-05T03:50:04.922Z,99.99
2018-11-05T03:50:45.503Z,99.99
2018-11-05T03:51:26.072Z,99.99
2018-11-05T03:52:06.642Z,99.99
2018-11-05T03:52:47.206Z,99.99
2018-11-05T03:53:27.781Z,99.99
2018-11-05T03:54:08.351Z,99.99
2018-11-05T03:54:48.897Z,99.99
2018-11-05T03:55:29.483Z,99.99
2018-11-05T03:56:10.196Z,99.99
2018-11-05T03:56:50.769Z,99.99
2018-11-05T03:57:31.180Z,99.99
2018-11-05T03:58:11.750Z,99.99
2018-11-05T03:58:52.295Z,99.99
2018-11-05T03:59:32.847Z,99.99
2018-11-05T04:00:13.404Z,99.99
2018-11-05T04:00:53.961Z,99.99
2018-11-05T04:01:34.504Z,99.99
2018-11-05T04:02:15.062Z,99.99
2018-11-05T04:02:55.618Z,99.99
2018-11-05T04:03:36.191Z,99.99
2018-11-05T04:04:16.759Z,99.99
2018-11-05T04:04:57.308Z,99.99
2018-11-05T04:05:37.929Z,99.99
2018-11-05T04:06:18.476Z,99.99
2018-11-05T04:06:59.104Z,99.99
2018-11-05T04:07:39.663Z,99.99
2018-11-05T04:08:20.239Z,99.99
2018-11-05T04:09:00.781Z,99.99
2018-11-05T04:09:41.346Z,99.99
2018-11-05T04:10:21.893Z,99.99
2018-11-05T04:11:02.457Z,99.99
2018-11-05T04:11:43.012Z,99.99
2018-11-05T04:12:23.579Z,99.99
2018-11-05T04:13:04.151Z,99.99
2018-11-05T04:13:44.728Z,99.99
2018-11-05T04:14:25.288Z,99.99
2018-11-05T04:15:05.852Z,99.99
2018-11-05T04:15:46.451Z,99.99
2018-11-05T04:16:26.968Z,99.99
2018-11-05T04:17:07.530Z,99.99
2018-11-05T04:17:48.083Z,99.99
2018-11-05T04:18:28.644Z,99.99
2018-11-05T04:19:09.190Z,99.99
2018-11-05T04:19:49.756Z,99.99
2018-11-05T04:20:30.309Z,99.99
2018-11-05T04:21:10.887Z,99.99
2018-11-05T04:21:51.438Z,99.99
2018-11-05T04:22:32.005Z,99.99
2018-11-05T04:23:12.561Z,99.99
2018-11-05T04:23:53.114Z,99.99
2018-11-05T04:24:33.705Z,99.99
2018-11-05T04:25:14.253Z,99.99
2018-11-05T04:25:54.834Z,99.99
2018-11-05T04:26:35.406Z,99.99
2018-11-05T04:27:15.958Z,99.99
2018-11-05T04:27:56.651Z,99.99
2018-11-05T04:28:37.096Z,99.99
2018-11-05T04:29:17.666Z,99.99
2018-11-05T04:29:58.242Z,99.99
2018-11-05T04:30:38.797Z,99.99
2018-11-05T04:31:19.361Z,99.99
2018-11-05T04:31:59.922Z,99.99
2018-11-05T04:32:40.493Z,99.99
2018-11-05T04:33:21.043Z,99.99
2018-11-05T04:34:01.594Z,99.99
2018-11-05T04:34:42.151Z,99.99
2018-11-05T04:35:22.709Z,99.99
2018-11-05T04:36:03.301Z,99.99
2018-11-05T04:36:43.853Z,99.99
2018-11-05T04:37:24.418Z,99.99
2018-11-05T04:38:04.989Z,99.99
2018-11-05T04:38:45.563Z,99.99
2018-11-05T04:39:26.118Z,99.99
2018-11-05T04:40:06.659Z,99.99
2018-11-05T04:40:47.219Z,99.99
2018-11-05T04:41:27.805Z,99.99
2018-11-05T04:42:08.371Z,99.99
2018-11-05T04:42:48.921Z,99.99
2018-11-05T04:43:29.482Z,99.99
2018-11-05T04:44:10.069Z,99.99
2018-11-05T04:44:50.639Z,99.99
2018-11-05T04:45:31.209Z,99.99
2018-11-05T04:46:11.803Z,99.99
2018-11-05T04:46:52.364Z,99.99
2018-11-05T04:47:32.933Z,99.99
2018-11-05T04:48:13.494Z,99.99
2018-11-05T04:48:54.091Z,99.99
2018-11-05T04:49:34.646Z,99.99
2018-11-05T04:50:15.198Z,99.99
2018-11-05T04:50:55.762Z,99.99
2018-11-05T04:51:36.313Z,99.99
2018-11-05T04:52:16.869Z,99.99
2018-11-05T04:52:57.434Z,99.99
2018-11-05T04:53:37.980Z,99.99
2018-11-05T04:54:18.542Z,99.99
2018-11-05T04:54:59.100Z,99.99
2018-11-05T04:55:39.651Z,99.99
2018-11-05T04:56:20.199Z,99.99
2018-11-05T04:57:00.763Z,99.99
2018-11-05T04:57:41.342Z,99.99
2018-11-05T04:58:21.895Z,99.99
2018-11-05T04:59:02.453Z,99.99
2018-11-05T04:59:43.007Z,99.99
2018-11-05T05:00:23.573Z,99.99
2018-11-05T05:01:04.117Z,99.99
2018-11-05T05:01:44.680Z,99.99
2018-11-05T05:02:25.231Z,99.99
2018-11-05T05:03:05.786Z,99.99
2018-11-05T05:03:46.343Z,99.99
2018-11-05T05:04:26.909Z,99.99
2018-11-05T05:05:07.447Z,99.99
2018-11-05T05:05:47.998Z,99.99
2018-11-05T05:06:28.546Z,99.99
2018-11-05T05:07:09.091Z,99.99
2018-11-05T05:07:49.648Z,99.99
2018-11-05T05:08:30.199Z,99.99
2018-11-05T05:09:10.763Z,99.99
2018-11-05T05:09:51.358Z,99.99
2018-11-05T05:10:31.897Z,99.99
2018-11-05T05:11:12.453Z,99.99
2018-11-05T05:11:53.009Z,99.99
2018-11-05T05:12:33.617Z,99.99
2018-11-05T05:13:14.202Z,99.99
2018-11-05T05:13:54.760Z,99.99
2018-11-05T05:14:35.312Z,99.99
2018-11-05T05:15:15.868Z,99.99
2018-11-05T05:15:56.462Z,99.99
2018-11-05T05:16:37.044Z,99.99
2018-11-05T05:17:17.587Z,99.99
2018-11-05T05:17:58.154Z,99.99
2018-11-05T05:18:38.709Z,99.99
2018-11-05T05:19:19.275Z,99.99
2018-11-05T05:19:59.833Z,99.99
2018-11-05T05:20:40.398Z,99.99
2018-11-05T05:21:20.964Z,99.99
2018-11-05T05:22:01.512Z,99.99
2018-11-05T05:22:42.276Z,99.99
2018-11-05T05:23:22.641Z,99.99
2018-11-05T05:24:03.204Z,99.99
2018-11-05T05:24:43.747Z,99.99
2018-11-05T05:25:24.303Z,99.99
2018-11-05T05:26:04.887Z,99.99
2018-11-05T05:26:45.466Z,99.99
2018-11-05T05:27:26.180Z,99.99
2018-11-05T05:28:06.728Z,99.99
2018-11-05T05:28:47.307Z,99.99
2018-11-05T05:29:27.876Z,99.99
2018-11-05T05:30:08.435Z,99.99
2018-11-05T05:30:49.009Z,99.99
2018-11-05T05:31:29.553Z,99.99
2018-11-05T05:32:10.119Z,99.99
2018-11-05T05:32:50.739Z,99.99
2018-11-05T05:33:31.266Z,99.99
2018-11-05T05:34:11.788Z,99.99
2018-11-05T05:34:52.359Z,99.99
2018-11-05T05:35:32.926Z,99.99
2018-11-05T05:36:13.488Z,99.99
2018-11-05T05:36:54.044Z,99.99
2018-11-05T05:37:34.635Z,99.99
2018-11-05T05:38:15.147Z,99.99
2018-11-05T05:38:55.691Z,99.99
2018-11-05T05:39:36.268Z,99.99
2018-11-05T05:40:16.814Z,99.99
2018-11-05T05:40:57.557Z,99.99
2018-11-05T05:41:37.951Z,99.99
2018-11-05T05:42:18.519Z,99.99
2018-11-05T05:42:59.077Z,99.99
2018-11-05T05:43:39.663Z,99.99
2018-11-05T05:44:20.224Z,99.99
2018-11-05T05:45:00.769Z,99.99
2018-11-05T05:45:41.336Z,99.99
2018-11-05T05:46:21.881Z,99.99
2018-11-05T05:47:02.440Z,99.99
2018-11-05T05:47:42.990Z,99.99
2018-11-05T05:48:23.560Z,99.99
2018-11-05T05:49:04.112Z,99.99
2018-11-05T05:49:44.736Z,99.99
2018-11-05T05:50:25.298Z,99.99
2018-11-05T05:51:05.891Z,99.99
2018-11-05T05:51:46.452Z,99.99
2018-11-05T05:52:27.020Z,99.99
2018-11-05T05:53:07.583Z,99.99
2018-11-05T05:53:48.146Z,99.99
2018-11-05T05:54:28.712Z,99.95
2018-11-05T05:55:09.270Z,99.99
2018-11-05T05:55:49.846Z,99.99
2018-11-05T05:56:30.533Z,99.99
2018-11-05T05:57:11.078Z,99.99
2018-11-05T05:57:51.641Z,99.99
2018-11-05T05:58:32.195Z,99.99
2018-11-05T05:59:12.741Z,99.99
2018-11-05T05:59:53.434Z,99.99
2018-11-05T06:00:33.938Z,99.95
2018-11-05T06:01:14.483Z,99.99
2018-11-05T06:01:55.045Z,99.99
2018-11-05T06:02:35.610Z,99.99
2018-11-05T06:03:16.149Z,99.99
2018-11-05T06:03:56.713Z,99.99
2018-11-05T06:04:37.282Z,99.99
2018-11-05T06:05:17.847Z,99.99
2018-11-05T06:05:58.534Z,99.95
2018-11-05T06:06:39.073Z,99.99
2018-11-05T06:07:19.535Z,99.99
2018-11-05T06:08:00.070Z,99.95
2018-11-05T06:08:40.623Z,99.75
2018-11-05T06:09:21.175Z,99.95
2018-11-05T06:10:01.733Z,99.46
2018-11-05T06:10:42.304Z,99.95
2018-11-05T06:11:22.870Z,99.95
2018-11-05T06:12:03.444Z,99.66
2018-11-05T06:12:44.031Z,99.85
2018-11-05T06:13:24.589Z,99.95
2018-11-05T06:14:05.152Z,99.75
2018-11-05T06:14:45.709Z,99.95
2018-11-05T06:15:26.265Z,99.56
2018-11-05T06:16:06.830Z,99.46
2018-11-05T06:16:47.406Z,99.66
2018-11-05T06:17:27.987Z,99.37
2018-11-05T06:18:08.547Z,99.37
2018-11-05T06:18:49.086Z,98.7
2018-11-05T06:19:29.637Z,98.9
2018-11-05T06:20:10.192Z,98.8
2018-11-05T06:20:50.768Z,98.8
2018-11-05T06:21:31.333Z,99.08
2018-11-05T06:22:11.901Z,98.7
2018-11-05T06:22:52.467Z,98.7
2018-11-05T06:23:33.033Z,99.08
2018-11-05T06:24:13.615Z,98.9
2018-11-05T06:24:54.150Z,98.51
2018-11-05T06:25:34.738Z,98.99
2018-11-05T06:26:15.354Z,98.8
2018-11-05T06:26:55.923Z,98.8
2018-11-05T06:27:36.471Z,99.08
2018-11-05T06:28:17.093Z,99.08
2018-11-05T06:28:57.612Z,98.99
2018-11-05T06:29:38.169Z,98.42
2018-11-05T06:30:18.730Z,98.61
2018-11-05T06:30:59.290Z,98.9
2018-11-05T06:31:39.842Z,98.99
2018-11-05T06:32:20.403Z,98.7
2018-11-05T06:33:00.952Z,98.13
2018-11-05T06:33:41.987Z,98.13
2018-11-05T06:34:22.575Z,98.32
2018-11-05T06:35:03.152Z,98.13
2018-11-05T06:35:43.696Z,98.51
2018-11-05T06:36:24.262Z,98.22
2018-11-05T06:37:04.820Z,98.51
2018-11-05T06:37:45.430Z,98.22
2018-11-05T06:38:26.055Z,98.22
2018-11-05T06:39:06.617Z,98.22
2018-11-05T06:39:47.175Z,98.51
2018-11-05T06:40:27.742Z,98.32
2018-11-05T06:41:08.343Z,97.85
2018-11-05T06:41:48.916Z,98.32
2018-11-05T06:42:29.403Z,98.32
2018-11-05T06:43:09.967Z,97.56
2018-11-05T06:43:50.519Z,97.56
2018-11-05T06:44:31.084Z,97.66
2018-11-05T06:45:11.751Z,97.66
2018-11-05T06:45:52.243Z,97.66
2018-11-05T06:46:32.829Z,97.66
2018-11-05T06:47:13.375Z,97.17
2018-11-05T06:47:53.950Z,97.37
2018-11-05T06:48:34.523Z,97.66
2018-11-05T06:49:15.081Z,97.56
2018-11-05T06:49:55.642Z,97.85
2018-11-05T06:50:36.252Z,97.66
2018-11-05T06:51:16.852Z,97.66
2018-11-05T06:51:57.418Z,97.27
2018-11-05T06:52:38.025Z,97.37
2018-11-05T06:53:18.556Z,98.03
2018-11-05T06:53:59.183Z,97.66
2018-11-05T06:54:39.977Z,97.66
2018-11-05T06:55:20.381Z,97.17
2018-11-05T06:56:00.926Z,97.37
2018-11-05T06:56:41.476Z,97.85
2018-11-05T06:57:22.093Z,97.27
2018-11-05T06:58:02.683Z,97.66
2018-11-05T06:58:43.253Z,97.56
2018-11-05T06:59:23.808Z,97.75
2018-11-05T07:00:04.385Z,96.98
2018-11-05T07:00:44.954Z,97.27
2018-11-05T07:01:25.542Z,97.27
2018-11-05T07:02:06.107Z,97.46
2018-11-05T07:02:46.671Z,97.27
2018-11-05T07:03:27.243Z,97.46
2018-11-05T07:04:07.819Z,97.17
2018-11-05T07:04:48.392Z,96.8
2018-11-05T07:05:29.027Z,96.98
2018-11-05T07:06:09.609Z,96.89
2018-11-05T07:06:50.159Z,96.98
2018-11-05T07:07:30.754Z,96.8
2018-11-05T07:08:11.352Z,97.08
2018-11-05T07:08:51.878Z,96.7
2018-11-05T07:09:32.452Z,96.61
2018-11-05T07:10:13.116Z,96.61
2018-11-05T07:10:53.719Z,96.61
2018-11-05T07:11:34.426Z,96.8
2018-11-05T07:12:14.834Z,96.32
2018-11-05T07:12:55.412Z,96.51
2018-11-05T07:13:35.954Z,96.13
2018-11-05T07:14:16.517Z,96.13
2018-11-05T07:14:57.096Z,96.13
2018-11-05T07:15:37.660Z,96.13
2018-11-05T07:16:18.266Z,96.03
2018-11-05T07:16:58.835Z,96.13
2018-11-05T07:17:39.445Z,96.7
2018-11-05T07:18:20.126Z,96.8
2018-11-05T07:19:00.882Z,96.03
2018-11-05T07:19:41.203Z,96.13
2018-11-05T07:20:21.765Z,96.22
2018-11-05T07:21:02.327Z,96.13
2018-11-05T07:21:42.914Z,96.13
2018-11-05T07:22:23.488Z,95.75
2018-11-05T07:23:04.087Z,95.84
2018-11-05T07:23:44.646Z,95.94
2018-11-05T07:24:25.234Z,96.22
2018-11-05T07:25:06.200Z,95.84
2018-11-05T07:25:46.762Z,95.94
2018-11-05T07:26:27.324Z,95.94
2018-11-05T07:27:07.941Z,95.84
2018-11-05T07:27:48.636Z,95.84
2018-11-05T07:28:29.126Z,95.84
2018-11-05T07:29:09.681Z,95.75
2018-11-05T07:29:50.275Z,95.94
2018-11-05T07:30:30.822Z,95.75
2018-11-05T07:31:11.388Z,95.75
2018-11-05T07:31:51.948Z,96.13
2018-11-05T07:32:32.531Z,95.94
2018-11-05T07:33:13.184Z,96.22
2018-11-05T07:33:53.756Z,96.13
2018-11-05T07:34:34.449Z,96.22
2018-11-05T07:35:14.803Z,96.8
2018-11-05T07:35:55.362Z,96.61
2018-11-05T07:36:35.930Z,96.8
2018-11-05T07:37:16.510Z,97.08
2018-11-05T07:37:57.130Z,96.51
2018-11-05T07:38:37.688Z,96.13
2018-11-05T07:39:18.248Z,96.13
2018-11-05T07:39:58.810Z,96.13
2018-11-05T07:40:39.402Z,95.94
2018-11-05T07:41:19.968Z,95.94
2018-11-05T07:42:00.537Z,96.13
2018-11-05T07:42:41.079Z,96.03
2018-11-05T07:43:21.640Z,95.75
2018-11-05T07:44:02.202Z,95.75
2018-11-05T07:44:42.780Z,95.84
2018-11-05T07:45:23.345Z,96.13
2018-11-05T07:46:03.904Z,95.84
2018-11-05T07:46:44.485Z,95.75
2018-11-05T07:47:25.063Z,95.84
2018-11-05T07:48:05.652Z,95.94
2018-11-05T07:48:46.221Z,95.94
2018-11-05T07:49:26.781Z,95.94
2018-11-05T07:50:07.416Z,95.94
2018-11-05T07:50:48.059Z,96.7
2018-11-05T07:51:28.453Z,96.22
2018-11-05T07:52:09.008Z,96.32
2018-11-05T07:52:49.578Z,95.94
2018-11-05T07:53:30.161Z,96.13
2018-11-05T07:54:10.739Z,96.32
2018-11-05T07:54:51.322Z,95.75
2018-11-05T07:55:31.891Z,95.75
2018-11-05T07:56:12.460Z,95.75
2018-11-05T07:56:53.048Z,95.84
2018-11-05T07:57:33.599Z,95.94
2018-11-05T07:58:14.178Z,95.94
2018-11-05T07:58:54.747Z,95.46
2018-11-05T07:59:35.354Z,95.46
2018-11-05T08:00:15.912Z,95.75
2018-11-05T08:00:56.483Z,95.08
2018-11-05T08:01:37.049Z,94.7
2018-11-05T08:02:17.677Z,95.75
2018-11-05T08:02:58.373Z,95.17
2018-11-05T08:03:38.811Z,95.08
2018-11-05T08:04:19.494Z,95.46
2018-11-05T08:04:59.988Z,95.75
2018-11-05T08:05:40.574Z,94.7
2018-11-05T08:06:21.138Z,95.27
2018-11-05T08:07:01.689Z,95.17
2018-11-05T08:07:42.267Z,94.7
2018-11-05T08:08:22.955Z,94.7
2018-11-05T08:09:03.450Z,95.37
2018-11-05T08:09:43.998Z,95.75
2018-11-05T08:10:24.552Z,94.7
2018-11-05T08:11:05.122Z,95.27
2018-11-05T08:11:45.710Z,95.27
2018-11-05T08:12:26.268Z,95.17
2018-11-05T08:13:06.832Z,95.17
2018-11-05T08:13:47.411Z,95.37
2018-11-05T08:14:28.066Z,94.98
2018-11-05T08:15:08.555Z,95.84
2018-11-05T08:15:49.114Z,95.65
2018-11-05T08:16:29.677Z,95.65
2018-11-05T08:17:10.276Z,95.37
2018-11-05T08:17:50.874Z,95.37
2018-11-05T08:18:31.457Z,95.56
2018-11-05T08:19:12.039Z,95.08
2018-11-05T08:19:52.603Z,94.98
2018-11-05T08:20:33.145Z,95.37
2018-11-05T08:21:13.694Z,94.79
2018-11-05T08:21:54.291Z,95.27
2018-11-05T08:22:34.863Z,94.89
2018-11-05T08:23:15.450Z,94.79
2018-11-05T08:23:56.056Z,95.37
2018-11-05T08:24:36.619Z,94.98
2018-11-05T08:25:17.264Z,94.79
2018-11-05T08:25:57.908Z,94.79
2018-11-05T08:26:38.412Z,94.7
2018-11-05T08:27:18.974Z,94.41
2018-11-05T08:28:00.391Z,95.08
2018-11-05T08:28:41.016Z,95.17
2018-11-05T08:29:21.592Z,94.7
2018-11-05T08:30:02.140Z,94.89
2018-11-05T08:30:42.712Z,94.98
2018-11-05T08:31:23.264Z,94.51
2018-11-05T08:32:03.875Z,94.79
2018-11-05T08:32:44.471Z,94.79
2018-11-05T08:33:25.011Z,95.08
2018-11-05T08:34:05.659Z,94.41
2018-11-05T08:34:46.146Z,94.89
2018-11-05T08:35:26.735Z,94.7
2018-11-05T08:36:07.290Z,94.79
2018-11-05T08:36:47.850Z,94.89
2018-11-05T08:37:28.425Z,94.51
2018-11-05T08:38:08.981Z,94.89
2018-11-05T08:38:49.611Z,94.12
2018-11-05T08:39:30.158Z,94.32
2018-11-05T08:40:10.795Z,94.22
2018-11-05T08:40:51.309Z,94.41
2018-11-05T08:41:31.861Z,94.12
2018-11-05T08:42:12.417Z,94.32
2018-11-05T08:42:52.974Z,94.12